Time;durP1;ratioP1;P1;durP2;ratioP2;P2;SDS_P1;SDS_P2;PMS_P1;PMS_P2;Temp;Humidity;BMP_temperature;BMP_pressure;BME280_temperature;BME280_humidity;BME280_pressure;Samples;Min_cycle;Max_cycle;Signal;HPM_P1;HPM_P2
2022/07/07 00:00:07;;;;;;;0.40;0.20;;;;;;;22.64;41.60;102076.25;16145249;19;132052;-57
2022/07/07 00:05:29;;;;;;;0.10;0.10;;;;;;;22.63;41.50;102074.56;16139070;19;129699;-55
2022/07/07 00:10:51;;;;;;;1.02;0.20;;;;;;;22.63;41.54;102068.97;16145342;19;130636;-58
2022/07/07 00:16:13;;;;;;;0.52;0.28;;;;;;;22.63;41.55;102069.84;16139737;19;130834;-56
2022/07/07 00:21:35;;;;;;;0.80;0.20;;;;;;;22.61;41.32;102051.63;16143488;19;129669;-56
2022/07/07 00:26:57;;;;;;;0.10;0.10;;;;;;;22.61;41.73;102048.84;16140099;19;130546;-58
2022/07/07 00:32:19;;;;;;;0.55;0.20;;;;;;;22.61;41.60;102060.00;16140459;19;130941;-56
2022/07/07 00:37:40;;;;;;;0.40;0.30;;;;;;;22.61;41.52;102060.00;16139996;19;130377;-57
2022/07/07 00:43:02;;;;;;;0.57;0.20;;;;;;;22.60;41.50;102053.59;16143770;19;129593;-57
2022/07/07 00:48:24;;;;;;;0.45;0.28;;;;;;;22.59;41.56;102046.31;16138527;19;129224;-56
2022/07/07 00:53:46;;;;;;;0.30;0.20;;;;;;;22.58;41.49;102028.75;16140912;19;131277;-57
2022/07/07 00:59:08;;;;;;;0.43;0.30;;;;;;;22.58;41.57;102033.47;16138765;19;129701;-55
2022/07/07 01:04:30;;;;;;;1.13;0.30;;;;;;;22.58;41.67;102022.31;16140172;19;129362;-57
2022/07/07 01:09:53;;;;;;;0.73;0.30;;;;;;;22.57;41.56;102028.97;16140298;19;129493;-56
2022/07/07 01:15:15;;;;;;;0.20;0.20;;;;;;;22.55;41.73;102020.00;16141150;19;130126;-55
2022/07/07 01:20:41;;;;;;;1.30;0.35;;;;;;;22.57;41.61;102017.81;16134868;19;129855;-57
2022/07/07 01:26:03;;;;;;;0.52;0.20;;;;;;;22.57;41.61;102012.25;16136725;19;131317;-55
2022/07/07 01:31:26;;;;;;;1.65;0.20;;;;;;;22.57;41.59;102020.59;16138369;19;129217;-58
2022/07/07 01:36:48;;;;;;;0.55;0.30;;;;;;;22.55;41.62;102006.06;16137509;19;130973;-57
2022/07/07 01:42:11;;;;;;;0.80;0.30;;;;;;;22.55;41.82;102003.28;16136768;19;129745;-56
2022/07/07 01:47:33;;;;;;;0.32;0.20;;;;;;;22.56;41.35;102007.75;16134963;19;129977;-58
2022/07/07 01:52:58;;;;;;;0.30;0.20;;;;;;;22.53;41.80;102003.53;16129894;19;129622;-58
2022/07/07 01:58:19;;;;;;;0.20;0.20;;;;;;;22.54;41.79;101998.78;16127674;19;129489;-55
2022/07/07 02:03:41;;;;;;;0.32;0.20;;;;;;;22.53;41.62;102003.53;16135784;19;130533;-55
2022/07/07 02:09:03;;;;;;;0.38;0.17;;;;;;;22.53;41.66;101991.50;16131406;19;130083;-57
2022/07/07 02:14:25;;;;;;;0.90;0.32;;;;;;;22.52;41.67;101990.69;16132218;19;129410;-57
2022/07/07 02:19:47;;;;;;;0.30;0.30;;;;;;;22.52;41.59;101995.44;16127176;19;129977;-54
2022/07/07 02:25:09;;;;;;;2.15;0.30;;;;;;;22.51;41.92;101988.97;16136226;19;130319;-54
2022/07/07 02:30:31;;;;;;;1.25;0.38;;;;;;;22.51;41.66;101994.56;16132671;19;129367;-57
2022/07/07 02:35:54;;;;;;;0.77;0.30;;;;;;;22.51;41.67;101982.56;16137064;19;130229;-55
2022/07/07 02:41:17;;;;;;;0.65;0.30;;;;;;;22.51;41.65;101974.22;16136121;19;129712;-56
2022/07/07 02:46:38;;;;;;;0.15;0.15;;;;;;;22.51;41.61;101965.84;16130946;19;129483;-58
2022/07/07 02:52:00;;;;;;;0.73;0.20;;;;;;;22.49;41.50;101968.84;16128205;19;129555;-54
2022/07/07 02:57:22;;;;;;;0.75;0.20;;;;;;;22.49;41.55;101974.44;16133831;19;129437;-56
2022/07/07 03:02:44;;;;;;;0.63;0.20;;;;;;;22.49;41.85;101976.38;16131093;19;129154;-58
2022/07/07 03:08:06;;;;;;;0.20;0.20;;;;;;;22.49;41.61;101968.03;16137123;19;131130;-56
2022/07/07 03:13:28;;;;;;;1.48;0.40;;;;;;;22.49;41.82;101973.59;16148401;19;130154;-54
2022/07/07 03:18:51;;;;;;;1.65;0.20;;;;;;;22.48;41.61;101977.47;16144465;19;130557;-57
2022/07/07 03:24:13;;;;;;;0.73;0.20;;;;;;;22.48;41.88;101966.31;16147628;19;129522;-57
2022/07/07 03:29:35;;;;;;;0.68;0.20;;;;;;;22.49;41.56;101973.59;16141784;19;129909;-55
2022/07/07 03:34:57;;;;;;;0.77;0.25;;;;;;;22.47;41.71;101986.94;16147424;19;129460;-58
2022/07/07 03:40:18;;;;;;;0.90;0.50;;;;;;;22.47;41.97;101986.94;16145235;19;130730;-57
2022/07/07 03:45:40;;;;;;;0.93;0.40;;;;;;;22.47;41.80;102000.88;16141480;19;128904;-56
2022/07/07 03:51:02;;;;;;;0.50;0.40;;;;;;;22.46;41.60;101997.25;16139759;19;131206;-54
2022/07/07 03:56:24;;;;;;;1.65;0.52;;;;;;;22.45;41.71;102001.13;16144543;19;129541;-52
2022/07/07 04:01:46;;;;;;;0.75;0.40;;;;;;;22.44;42.10;102000.28;16146205;19;129707;-50
2022/07/07 04:07:08;;;;;;;2.38;0.30;;;;;;;22.44;41.76;102005.84;16144174;19;129596;-58
2022/07/07 04:12:31;;;;;;;1.33;0.30;;;;;;;22.42;41.58;101994.09;16140532;19;129533;-57
2022/07/07 04:17:53;;;;;;;0.82;0.38;;;;;;;22.42;41.70;101994.09;16141054;19;131348;-58
2022/07/07 04:23:15;;;;;;;0.40;0.30;;;;;;;22.44;41.84;102005.03;16145551;19;129457;-54
2022/07/07 04:28:36;;;;;;;0.30;0.20;;;;;;;22.42;41.69;101991.31;16142180;19;129689;-57
2022/07/07 04:33:58;;;;;;;2.05;0.30;;;;;;;22.42;42.07;101980.16;16142663;19;130706;-56
2022/07/07 04:39:21;;;;;;;0.70;0.20;;;;;;;22.41;41.84;101986.81;16145064;19;130413;-57
2022/07/07 04:44:42;;;;;;;2.22;0.28;;;;;;;22.42;42.18;101990.47;16140825;19;129260;-57
2022/07/07 04:50:05;;;;;;;0.50;0.20;;;;;;;22.42;42.06;101996.88;16136062;19;129506;-58
2022/07/07 04:55:26;;;;;;;0.40;0.20;;;;;;;22.41;41.79;101994.34;16142166;19;129432;-58
2022/07/07 05:00:48;;;;;;;0.38;0.20;;;;;;;22.39;41.74;101994.59;16144023;19;130115;-57
2022/07/07 05:06:10;;;;;;;0.52;0.20;;;;;;;22.39;41.60;102000.19;16141408;19;130747;-57
2022/07/07 05:11:32;;;;;;;1.27;0.57;;;;;;;22.39;42.15;102019.69;16142305;19;129237;-58
2022/07/07 05:16:54;;;;;;;3.22;0.20;;;;;;;22.40;41.84;102026.13;16139250;19;130923;-58
2022/07/07 05:22:16;;;;;;;0.95;0.30;;;;;;;22.39;42.04;102041.13;16138844;19;130711;-57
2022/07/07 05:27:38;;;;;;;5.75;0.60;;;;;;;22.37;42.00;102044.19;16139008;19;130186;-58
2022/07/07 05:33:00;;;;;;;0.73;0.10;;;;;;;22.37;41.92;102066.50;16139329;19;130115;-58
2022/07/07 05:38:22;;;;;;;0.45;0.20;;;;;;;22.35;42.21;102068.66;16140215;19;130412;-57
2022/07/07 05:43:44;;;;;;;3.25;0.40;;;;;;;22.35;42.35;102078.97;16140560;19;129562;-57
2022/07/07 05:49:07;;;;;;;1.05;0.40;;;;;;;22.34;42.62;102078.13;16132971;19;130533;-55
2022/07/07 05:54:28;;;;;;;0.40;0.25;;;;;;;22.34;42.28;102082.88;16138630;19;129565;-56
2022/07/07 05:59:50;;;;;;;0.55;0.22;;;;;;;22.35;42.29;102084.53;16140519;19;129932;-56
2022/07/07 06:05:12;;;;;;;0.73;0.00;;;;;;;22.39;42.42;102102.47;16137367;19;130794;-56
2022/07/07 06:10:35;;;;;;;1.80;0.40;;;;;;;22.42;42.11;102111.19;16133076;19;132106;-56
2022/07/07 06:15:57;;;;;;;1.10;0.30;;;;;;;22.43;42.40;102114.84;16134803;19;129639;-57
2022/07/07 06:21:19;;;;;;;0.93;0.25;;;;;;;22.43;42.61;102120.44;16140787;19;129627;-57
2022/07/07 06:26:40;;;;;;;1.85;0.38;;;;;;;22.46;42.32;102124.66;16137417;19;129513;-57
2022/07/07 06:32:03;;;;;;;1.42;0.38;;;;;;;22.47;42.30;102140.31;16137795;19;130652;-55
2022/07/07 06:37:25;;;;;;;2.28;0.50;;;;;;;22.49;42.34;102138.13;16137111;19;128858;-57
2022/07/07 06:42:47;;;;;;;0.98;0.28;;;;;;;22.52;42.33;102140.44;16134840;19;129752;-56
2022/07/07 06:48:08;;;;;;;1.27;0.47;;;;;;;22.53;42.43;102153.25;16131635;19;130430;-57
2022/07/07 06:53:30;;;;;;;1.20;0.38;;;;;;;22.52;42.12;102146.00;16131903;19;129289;-56
2022/07/07 06:58:52;;;;;;;3.15;0.43;;;;;;;22.51;42.41;102163.84;16134206;19;130023;-55
2022/07/07 07:04:14;;;;;;;2.00;0.50;;;;;;;22.50;42.09;102153.78;16130439;19;129873;-54
2022/07/07 07:09:36;;;;;;;3.30;0.50;;;;;;;22.48;42.17;102167.94;16123551;19;131659;-55
2022/07/07 07:14:58;;;;;;;2.72;0.47;;;;;;;22.52;42.21;102174.72;16112401;19;130393;-57
2022/07/07 07:20:20;;;;;;;3.58;0.80;;;;;;;22.54;41.86;102178.13;16121499;19;131851;-58
2022/07/07 07:25:42;;;;;;;1.48;0.30;;;;;;;22.56;41.86;102180.66;16126569;19;130450;-54
2022/07/07 07:31:04;;;;;;;4.15;0.50;;;;;;;22.57;41.90;102193.53;16128265;19;130128;-55
2022/07/07 07:36:26;;;;;;;2.25;0.65;;;;;;;22.59;41.55;102202.50;16119256;19;132412;-54
2022/07/07 07:41:47;;;;;;;3.75;0.60;;;;;;;22.58;41.84;102211.97;16126157;19;129413;-56
2022/07/07 07:47:09;;;;;;;3.80;0.57;;;;;;;22.57;41.68;102210.25;16124514;19;129037;-57
2022/07/07 07:52:31;;;;;;;3.60;0.60;;;;;;;22.55;41.34;102216.09;16126799;19;130940;-56
2022/07/07 07:57:53;;;;;;;3.03;0.60;;;;;;;22.54;41.56;102228.34;16140337;19;130061;-57
2022/07/07 08:03:15;;;;;;;3.42;0.70;;;;;;;22.51;41.74;102237.16;16137826;19;131621;-57
2022/07/07 08:08:37;;;;;;;2.38;0.77;;;;;;;22.50;41.35;102251.38;16143246;19;129593;-58
2022/07/07 08:13:59;;;;;;;2.88;0.60;;;;;;;22.47;41.38;102263.84;16147114;19;129239;-56
2022/07/07 08:19:20;;;;;;;3.03;0.90;;;;;;;22.44;41.43;102286.66;16142530;19;129306;-58
2022/07/07 08:24:43;;;;;;;4.57;0.60;;;;;;;22.40;41.43;102279.84;16146367;19;130970;-56
2022/07/07 08:30:05;;;;;;;3.30;0.80;;;;;;;22.40;41.16;102261.16;16143644;19;129518;-56
2022/07/07 08:35:27;;;;;;;2.75;0.55;;;;;;;22.45;41.35;102271.63;16146505;19;128931;-56
2022/07/07 08:40:49;;;;;;;3.38;0.50;;;;;;;22.49;41.34;102264.44;16146047;19;129363;-54
2022/07/07 08:46:11;;;;;;;4.18;0.40;;;;;;;22.51;41.46;102273.44;16146614;19;129971;-54
2022/07/07 08:51:33;;;;;;;2.28;0.50;;;;;;;22.55;41.43;102271.00;16143543;19;129382;-56
2022/07/07 08:56:55;;;;;;;1.20;0.50;;;;;;;22.55;41.28;102282.16;16143547;19;130309;-56
2022/07/07 09:02:17;;;;;;;1.23;0.45;;;;;;;22.53;41.18;102289.91;16142961;19;129144;-56
2022/07/07 09:07:50;;;;;;;1.27;0.43;;;;;;;22.52;41.34;102313.34;16134827;19;129590;-55
2022/07/07 09:13:21;;;;;;;1.92;0.40;;;;;;;22.48;41.06;102315.72;16145317;19;129523;-55
2022/07/07 09:18:45;;;;;;;2.45;0.47;;;;;;;22.47;40.99;102332.72;16135833;19;130570;-55
2022/07/07 09:24:07;;;;;;;1.30;0.50;;;;;;;22.46;40.88;102326.31;16137536;19;129292;-56
2022/07/07 09:29:30;;;;;;;2.42;0.50;;;;;;;22.46;41.18;102319.84;16140861;19;129447;-58
2022/07/07 09:34:52;;;;;;;2.42;0.75;;;;;;;22.47;41.26;102325.19;16142970;19;130084;-57
2022/07/07 09:40:18;;;;;;;0.60;0.25;;;;;;;22.50;41.02;102327.50;16142150;19;130189;-55
2022/07/07 09:45:40;;;;;;;0.82;0.30;;;;;;;22.52;41.06;102330.91;16142468;19;130339;-54
2022/07/07 09:51:20;;;;;;;1.88;0.30;;;;;;;22.55;40.80;102338.81;16135019;19;129668;-52
2022/07/07 09:56:46;;;;;;;1.52;0.45;;;;;;;22.52;40.71;102342.06;16141458;19;129925;-58
2022/07/07 10:02:17;;;;;;;2.60;0.40;;;;;;;22.48;40.86;102351.16;16136220;19;129942;-58
2022/07/07 10:07:39;;;;;;;1.95;0.50;;;;;;;22.46;41.05;102372.84;16136903;19;129624;-58
2022/07/07 10:13:03;;;;;;;2.90;0.60;;;;;;;22.41;41.18;102363.25;16132840;19;129824;-59
2022/07/07 10:18:24;;;;;;;2.45;0.60;;;;;;;22.41;40.87;102377.19;16132336;19;129953;-59
2022/07/07 10:23:47;;;;;;;3.47;0.75;;;;;;;22.41;41.24;102385.53;16137912;19;129365;-58
2022/07/07 10:29:10;;;;;;;3.03;0.50;;;;;;;22.43;41.24;102388.13;16133985;19;130228;-59
2022/07/07 10:34:33;;;;;;;2.22;0.40;;;;;;;22.44;41.36;102406.56;16150725;19;130223;-60
2022/07/07 10:39:56;;;;;;;2.00;0.45;;;;;;;22.45;41.49;102422.19;16133605;19;130633;-57
2022/07/07 10:45:19;;;;;;;3.13;0.65;;;;;;;22.46;41.54;102423.03;16139484;19;129485;-59
2022/07/07 10:50:40;;;;;;;1.75;0.50;;;;;;;22.46;41.47;102432.28;16133789;19;130788;-58
2022/07/07 10:56:02;;;;;;;2.88;0.45;;;;;;;22.48;41.51;102435.66;16135611;19;129361;-58
2022/07/07 11:01:35;;;;;;;2.78;0.50;;;;;;;22.49;41.52;102442.09;16131116;19;131996;-57
2022/07/07 11:07:14;;;;;;;4.68;0.57;;;;;;;22.52;41.61;102447.22;16136227;19;129958;-54
2022/07/07 11:12:37;;;;;;;1.98;0.40;;;;;;;22.47;41.23;102461.00;16135290;19;129683;-58
2022/07/07 11:18:00;;;;;;;1.90;0.50;;;;;;;22.46;41.26;102462.94;16132982;19;129210;-58
2022/07/07 11:23:26;;;;;;;2.30;0.50;;;;;;;22.47;41.34;102467.41;16134728;19;129252;-58
2022/07/07 11:28:48;;;;;;;;;;;;;;;22.45;41.34;102472.41;16143730;19;128904;-58
2022/07/07 11:34:11;;;;;;;3.08;0.52;;;;;;;22.48;41.35;102474.69;16149926;19;130950;-54
2022/07/07 11:39:33;;;;;;;1.90;0.40;;;;;;;22.47;41.21;102475.78;16148468;19;129274;-57
2022/07/07 11:44:54;;;;;;;2.03;0.30;;;;;;;22.48;41.42;102471.06;16150596;19;129753;-58
2022/07/07 11:50:17;;;;;;;3.03;0.77;;;;;;;22.48;41.28;102479.44;16146543;19;129841;-57
2022/07/07 11:55:40;;;;;;;58.45;3.72;;;;;;;22.47;41.11;102494.47;16149519;19;130074;-56
2022/07/07 12:01:02;;;;;;;11.68;1.00;;;;;;;22.48;41.40;102497.00;16150860;19;129573;-58
2022/07/07 12:06:25;;;;;;;10.90;1.00;;;;;;;22.50;41.39;102494.84;16149781;19;128823;-54
2022/07/07 12:11:48;;;;;;;8.05;1.05;;;;;;;22.50;41.34;102506.00;16145318;19;129879;-58
2022/07/07 12:17:10;;;;;;;4.40;0.80;;;;;;;22.51;41.48;102490.13;16147740;19;129889;-58
2022/07/07 12:22:36;;;;;;;4.72;0.80;;;;;;;22.51;41.17;102495.69;16149454;19;130845;-54
2022/07/07 12:27:59;;;;;;;5.20;0.80;;;;;;;22.51;41.13;102498.50;16145278;19;131768;-55
2022/07/07 12:33:32;;;;;;;6.60;0.90;;;;;;;22.51;41.33;102520.81;16145147;19;130270;-55
2022/07/07 12:38:57;;;;;;;6.97;0.90;;;;;;;22.51;41.11;102530.00;16139506;19;129029;-56
2022/07/07 12:44:26;;;;;;;4.30;0.88;;;;;;;22.52;41.46;102519.72;16146510;19;129697;-55
2022/07/07 12:50:11;;;;;;;3.08;0.68;;;;;;;22.53;41.26;102532.53;16142470;19;129936;-54
2022/07/07 12:55:34;;;;;;;;;;;;;;;22.50;41.07;102555.34;16146830;19;129119;-57
2022/07/07 13:01:04;;;;;;;7.10;0.80;;;;;;;22.53;41.21;102544.56;16146369;19;130045;-57
2022/07/07 13:06:25;;;;;;;4.57;0.80;;;;;;;22.51;41.42;102537.53;16143326;19;129753;-56
2022/07/07 13:11:50;;;;;;;1.58;0.52;;;;;;;22.52;41.36;102553.19;16138526;19;129198;-54
2022/07/07 13:17:12;;;;;;;4.60;0.50;;;;;;;22.52;41.45;102558.75;16140869;19;129841;-57
2022/07/07 13:22:35;;;;;;;3.03;0.73;;;;;;;22.52;41.42;102561.56;16142599;19;129124;-56
2022/07/07 13:27:57;;;;;;;3.90;0.52;;;;;;;22.51;41.33;102573.78;16142818;19;130776;-56
2022/07/07 13:33:19;;;;;;;3.35;0.65;;;;;;;22.50;41.44;102572.09;16140557;19;128855;-56
2022/07/07 13:38:41;;;;;;;4.22;0.88;;;;;;;22.51;41.13;102583.00;16130431;19;130021;-56
2022/07/07 13:44:02;;;;;;;9.63;1.48;;;;;;;22.52;41.32;102595.84;16141451;19;130341;-55
2022/07/07 13:49:24;;;;;;;13.60;0.90;;;;;;;22.52;41.50;102578.28;16139214;19;129275;-57
2022/07/07 13:54:46;;;;;;;4.80;0.85;;;;;;;22.52;41.17;102590.28;16140068;19;131227;-56
2022/07/07 14:00:08;;;;;;;5.18;0.70;;;;;;;22.53;40.87;102591.13;16141597;19;130265;-55
2022/07/07 14:05:32;;;;;;;5.40;0.80;;;;;;;22.53;41.36;102594.78;16140663;19;130621;-57
2022/07/07 14:10:53;;;;;;;11.23;1.40;;;;;;;22.53;41.16;102616.22;16137131;19;129825;-57
2022/07/07 14:16:15;;;;;;;8.80;1.17;;;;;;;22.51;41.16;102610.88;16139148;19;129659;-57
2022/07/07 14:21:37;;;;;;;5.55;1.15;;;;;;;22.50;40.87;102611.13;16137653;19;129059;-57
2022/07/07 14:26:59;;;;;;;3.67;0.93;;;;;;;22.49;41.21;102620.56;16136276;19;129413;-57
2022/07/07 14:32:21;;;;;;;7.70;1.27;;;;;;;22.49;41.16;102624.19;16131699;19;133945;-58
2022/07/07 14:37:43;;;;;;;14.40;1.90;;;;;;;22.48;40.73;102621.66;16138470;19;129433;-57
2022/07/07 14:43:05;;;;;;;13.82;2.33;;;;;;;22.45;40.51;102614.63;16139080;19;129306;-52
2022/07/07 14:48:29;;;;;;;13.50;1.98;;;;;;;22.44;40.69;102624.91;16136833;19;128864;-56
2022/07/07 14:53:52;;;;;;;9.38;1.60;;;;;;;22.44;40.27;102627.69;16137684;19;128857;-55
2022/07/07 14:59:14;;;;;;;8.68;1.40;;;;;;;22.44;40.52;102619.31;16138899;19;128876;-56
2022/07/07 15:04:35;;;;;;;10.90;1.65;;;;;;;22.44;40.40;102636.06;16133976;19;129240;-56
2022/07/07 15:09:58;;;;;;;9.68;1.33;;;;;;;22.45;40.19;102642.50;16131663;19;129275;-55
2022/07/07 15:15:19;;;;;;;6.30;0.95;;;;;;;22.44;40.12;102638.00;16133768;19;128899;-56
2022/07/07 15:20:42;;;;;;;6.43;1.25;;;;;;;22.44;40.05;102640.78;16134748;19;129263;-55
2022/07/07 15:26:04;;;;;;;5.40;1.05;;;;;;;22.43;39.86;102644.66;16135345;19;129932;-54
2022/07/07 15:31:26;;;;;;;6.70;1.13;;;;;;;22.44;39.79;102652.78;16132452;19;131315;-56
2022/07/07 15:36:48;;;;;;;8.48;1.52;;;;;;;22.46;39.71;102651.72;16134480;19;129492;-55
2022/07/07 15:42:10;;;;;;;10.40;1.45;;;;;;;22.49;39.51;102654.03;16133735;19;129317;-54
2022/07/07 15:47:32;;;;;;;6.50;1.13;;;;;;;22.49;39.54;102665.19;16133699;19;129332;-55
2022/07/07 15:52:54;;;;;;;2.80;0.90;;;;;;;22.49;39.51;102670.78;16127510;19;129761;-52
2022/07/07 15:58:17;;;;;;;7.55;0.98;;;;;;;22.48;39.23;102680.22;16132374;19;129108;-55
2022/07/07 16:09:21;;;;;;;14.60;2.42;;;;;;;22.48;39.47;102691.38;16130510;19;129397;-57
2022/07/07 16:14:44;;;;;;;34.83;7.07;;;;;;;22.49;39.75;102693.94;16139453;19;130884;-57
2022/07/07 16:20:10;;;;;;;28.92;4.85;;;;;;;22.50;39.48;102690.06;16141201;19;131145;-55
2022/07/07 16:25:32;;;;;;;21.08;4.25;;;;;;;22.52;39.59;102699.06;16147345;19;130398;-55
2022/07/07 16:30:53;;;;;;;23.70;4.38;;;;;;;22.54;39.65;102696.91;16142677;19;129535;-51
2022/07/07 16:36:15;;;;;;;25.15;3.83;;;;;;;22.53;39.65;102705.47;16140362;19;129749;-59
2022/07/07 16:41:42;;;;;;;16.75;3.47;;;;;;;22.55;39.10;102703.31;16135693;19;131990;-54
2022/07/07 16:47:04;;;;;;;17.83;3.28;;;;;;;22.52;39.54;102715.78;16145169;19;129400;-54
2022/07/07 16:52:26;;;;;;;15.50;3.22;;;;;;;22.50;39.35;102722.69;16141192;19;130121;-56
2022/07/07 16:57:47;;;;;;;17.30;4.07;;;;;;;22.50;39.07;102720.75;16144358;19;129290;-52
2022/07/07 17:03:09;;;;;;;22.67;3.00;;;;;;;22.53;39.41;102725.00;16142863;19;129166;-55
2022/07/07 17:08:32;;;;;;;16.55;2.90;;;;;;;22.57;39.65;102721.53;16139173;19;129330;-53
2022/07/07 17:13:54;;;;;;;16.85;3.42;;;;;;;22.61;39.91;102719.16;16143918;19;129739;-58
2022/07/07 17:19:16;;;;;;;14.63;3.35;;;;;;;22.66;40.13;102722.06;16138324;19;129038;-56
2022/07/07 17:24:38;;;;;;;12.95;2.95;;;;;;;22.68;40.52;102727.44;16140282;19;130277;-57
2022/07/07 17:30:00;;;;;;;10.13;2.78;;;;;;;22.70;40.65;102728.91;16137671;19;129505;-56
2022/07/07 17:35:24;;;;;;;11.93;3.47;;;;;;;22.71;40.60;102739.00;16139081;19;129956;-54
2022/07/07 17:40:46;;;;;;;13.75;2.83;;;;;;;22.69;40.19;102743.94;16141531;19;128902;-57
2022/07/07 17:46:08;;;;;;;18.02;2.60;;;;;;;22.70;40.37;102750.38;16139734;19;128893;-59
2022/07/07 17:51:30;;;;;;;14.75;2.47;;;;;;;22.67;40.07;102757.25;16139718;19;130150;-59
2022/07/07 17:56:52;;;;;;;7.05;1.98;;;;;;;22.66;40.27;102766.72;16138263;19;128933;-62
2022/07/07 18:02:15;;;;;;;31.42;3.83;;;;;;;22.69;39.99;102771.84;16140744;19;129648;-60
2022/07/07 18:07:37;;;;;;;20.45;2.90;;;;;;;22.68;40.32;102772.91;16140481;19;129427;-61
2022/07/07 18:12:58;;;;;;;14.75;1.85;;;;;;;22.65;40.15;102765.00;16136197;19;129419;-59
2022/07/07 18:18:20;;;;;;;18.15;2.22;;;;;;;22.64;39.76;102768.03;16137704;19;128885;-60
2022/07/07 18:23:43;;;;;;;10.23;1.80;;;;;;;22.65;40.06;102775.31;16138508;19;129153;-59
2022/07/07 18:29:05;;;;;;;13.18;2.15;;;;;;;22.65;40.12;102783.69;16138778;19;129927;-57
2022/07/07 18:34:27;;;;;;;13.55;1.70;;;;;;;22.63;39.89;102785.84;16135744;19;129429;-58
2022/07/07 18:39:49;;;;;;;15.68;1.90;;;;;;;22.62;40.07;102793.38;16136401;19;130051;-61
2022/07/07 18:45:11;;;;;;;20.77;2.00;;;;;;;22.61;39.36;102790.81;16139957;19;129544;-59
2022/07/07 18:50:33;;;;;;;15.07;1.60;;;;;;;22.59;39.71;102800.25;16131156;19;128936;-60
2022/07/07 18:55:54;;;;;;;9.93;1.60;;;;;;;22.58;39.91;102808.84;16141257;19;129115;-59
2022/07/07 19:01:16;;;;;;;8.23;1.05;;;;;;;22.58;39.53;102808.84;16142556;19;129472;-62
2022/07/07 19:06:38;;;;;;;6.00;1.35;;;;;;;22.56;39.79;102820.25;16134763;19;129608;-58
2022/07/07 19:12:01;;;;;;;11.32;1.75;;;;;;;22.57;39.46;102823.88;16134374;19;130671;-57
2022/07/07 19:17:23;;;;;;;12.35;1.40;;;;;;;22.54;39.63;102833.56;16134319;19;129253;-56
2022/07/07 19:22:45;;;;;;;10.52;1.52;;;;;;;22.53;39.34;102831.84;16136806;19;129400;-56
2022/07/07 19:28:07;;;;;;;13.15;1.67;;;;;;;22.53;39.60;102836.56;16136619;19;129642;-57
2022/07/07 19:33:29;;;;;;;13.38;1.55;;;;;;;22.53;39.59;102844.94;16130246;19;129066;-57
2022/07/07 19:38:52;;;;;;;11.63;1.05;;;;;;;22.52;39.87;102837.66;16134754;19;130620;-57
2022/07/07 19:44:14;;;;;;;10.25;1.50;;;;;;;22.50;39.87;102850.97;16132782;19;130175;-58
2022/07/07 19:49:36;;;;;;;9.93;1.30;;;;;;;22.48;39.64;102859.56;16139298;19;130725;-58
2022/07/07 19:54:59;;;;;;;8.07;1.38;;;;;;;22.49;40.11;102866.84;16148438;19;128846;-56
2022/07/07 20:00:21;;;;;;;13.82;1.60;;;;;;;22.48;39.97;102876.28;16149445;19;129054;-54
2022/07/07 20:05:42;;;;;;;12.43;1.48;;;;;;;22.47;39.90;102879.31;16149034;19;131167;-59
2022/07/07 20:11:04;;;;;;;8.63;1.48;;;;;;;22.43;39.99;102902.06;16150207;19;130246;-56
2022/07/07 20:16:26;;;;;;;10.48;1.65;;;;;;;22.41;39.60;102908.97;16158219;19;129380;-55
2022/07/07 20:21:48;;;;;;;14.10;1.13;;;;;;;22.39;39.88;102912.00;16159772;19;129266;-59
2022/07/07 20:27:10;;;;;;;8.38;1.33;;;;;;;22.35;39.90;102924.66;16148126;19;129675;-55
2022/07/07 20:32:32;;;;;;;9.45;0.90;;;;;;;22.32;39.93;102927.88;16146492;19;129597;-56
2022/07/07 20:37:53;;;;;;;6.80;1.27;;;;;;;22.30;39.62;102924.47;16144168;19;129925;-54
2022/07/07 20:43:15;;;;;;;4.47;0.82;;;;;;;22.28;39.46;102932.19;16137469;19;129792;-55
2022/07/07 20:48:37;;;;;;;6.80;1.38;;;;;;;22.26;39.61;102937.16;16137149;19;129210;-55
2022/07/07 20:53:59;;;;;;;6.18;1.13;;;;;;;22.26;39.87;102938.00;16135727;19;129796;-54
2022/07/07 20:59:21;;;;;;;3.38;0.85;;;;;;;22.25;39.45;102950.22;16138800;19;130576;-55
2022/07/07 21:04:47;;;;;;;9.55;1.00;;;;;;;22.23;39.48;102951.53;16141751;19;129882;-56
2022/07/07 21:10:08;;;;;;;5.82;1.17;;;;;;;22.19;39.29;102944.66;16143131;19;129778;-54
2022/07/07 21:15:30;;;;;;;7.10;1.02;;;;;;;22.18;39.46;102954.09;16140968;19;129708;-56
2022/07/07 21:20:52;;;;;;;4.75;1.13;;;;;;;22.18;39.21;102956.88;16140833;19;130191;-55
2022/07/07 21:26:16;;;;;;;6.55;1.10;;;;;;;22.17;39.38;102955.16;16139299;19;129036;-55
2022/07/07 21:31:38;;;;;;;3.63;0.88;;;;;;;22.15;39.39;102941.44;16137745;19;129317;-56
2022/07/07 21:37:00;;;;;;;1.98;0.50;;;;;;;22.13;39.26;102944.47;16136122;19;130430;-56
2022/07/07 21:42:22;;;;;;;6.57;1.23;;;;;;;22.13;39.67;102964.00;16139529;19;129719;-55
2022/07/07 21:47:44;;;;;;;4.10;0.80;;;;;;;22.12;39.73;102973.44;16140395;19;129783;-56
2022/07/07 21:53:06;;;;;;;1.92;0.63;;;;;;;22.12;39.65;102973.44;16138098;19;130180;-55
2022/07/07 21:58:27;;;;;;;5.53;0.70;;;;;;;22.11;39.44;102985.66;16137980;19;129723;-54
2022/07/07 22:09:34;;;;;;;4.57;0.73;;;;;;;22.10;39.67;102986.72;16127320;19;129498;-54
2022/07/07 22:14:55;;;;;;;3.10;0.88;;;;;;;22.08;39.69;102986.06;16130079;19;130940;-55
2022/07/07 22:20:17;;;;;;;3.28;0.90;;;;;;;22.08;39.84;102999.19;16128555;19;130123;-56
2022/07/07 22:25:39;;;;;;;3.15;0.63;;;;;;;22.06;39.45;102999.38;16132769;19;129637;-55
2022/07/07 22:31:01;;;;;;;2.55;0.63;;;;;;;22.06;39.45;102996.59;16134640;19;128927;-56
2022/07/07 22:36:23;;;;;;;1.77;0.63;;;;;;;22.05;39.71;103011.59;16130402;19;129856;-55
2022/07/07 22:41:45;;;;;;;2.75;0.40;;;;;;;22.04;39.78;103001.53;16137109;19;131024;-53
2022/07/07 22:47:06;;;;;;;2.47;0.65;;;;;;;22.04;39.77;103009.03;16135390;19;131469;-54
2022/07/07 22:52:28;;;;;;;1.63;0.52;;;;;;;22.04;40.01;103006.25;16133337;19;131061;-53
2022/07/07 22:57:50;;;;;;;2.05;0.60;;;;;;;22.03;39.90;103015.69;16133527;19;130703;-54
2022/07/07 23:03:15;;;;;;;2.30;0.50;;;;;;;22.03;40.10;103010.97;16136271;19;130004;-55
2022/07/07 23:08:37;;;;;;;3.53;0.80;;;;;;;22.01;39.85;103009.47;16134457;19;130230;-54
2022/07/07 23:13:59;;;;;;;3.08;0.70;;;;;;;22.00;39.79;103008.63;16130015;19;129852;-52
2022/07/07 23:19:21;;;;;;;2.58;0.63;;;;;;;22.00;39.69;103013.34;16129240;19;129330;-52
2022/07/07 23:24:43;;;;;;;1.05;0.55;;;;;;;22.00;39.86;103007.75;16142770;19;129867;-54
2022/07/07 23:30:05;;;;;;;0.80;0.40;;;;;;;21.98;39.79;103013.56;16146933;19;129020;-55
2022/07/07 23:35:27;;;;;;;1.05;0.40;;;;;;;21.99;39.86;103012.50;16150308;19;129683;-57
2022/07/07 23:40:49;;;;;;;0.85;0.45;;;;;;;21.97;39.60;103009.91;16148382;19;130623;-57
2022/07/07 23:46:11;;;;;;;2.35;0.63;;;;;;;21.98;39.80;103013.56;16147984;19;129624;-55
2022/07/07 23:51:33;;;;;;;1.98;0.40;;;;;;;21.97;40.09;103004.31;16147608;19;130648;-55
2022/07/07 23:56:55;;;;;;;1.27;0.20;;;;;;;21.95;40.11;103009.28;16147924;19;129009;-57
